createdAt,value
2022-12-08T00:00:25.217Z,9.681428
2022-12-08T00:01:25.220Z,9.681428
2022-12-08T00:02:25.362Z,9.681428
2022-12-08T00:03:25.332Z,9.681428
2022-12-08T00:04:25.201Z,9.681428
2022-12-08T00:05:25.203Z,9.681428
2022-12-08T00:06:25.196Z,9.681428
2022-12-08T00:07:25.191Z,9.681428
2022-12-08T00:08:25.279Z,9.681428
2022-12-08T00:09:25.219Z,9.681428
2022-12-08T00:10:48.472Z,9.681428
2022-12-08T00:11:26.173Z,9.681428
2022-12-08T00:12:25.157Z,9.681428
2022-12-08T00:13:25.161Z,9.681428
2022-12-08T00:14:25.154Z,9.681428
2022-12-08T00:15:25.176Z,9.681428
2022-12-08T00:16:25.199Z,9.681428
2022-12-08T00:17:25.137Z,9.681428
2022-12-08T00:18:25.136Z,9.681428
2022-12-08T00:19:25.129Z,9.681428
2022-12-08T00:20:25.133Z,9.681428
2022-12-08T00:21:25.157Z,9.681428
2022-12-08T00:22:25.101Z,9.681428
2022-12-08T00:23:25.104Z,9.681428
2022-12-08T00:24:25.092Z,9.681428
2022-12-08T00:25:25.099Z,9.681428
2022-12-08T00:26:25.088Z,9.681428
2022-12-08T00:27:25.071Z,9.681428
2022-12-08T00:28:25.064Z,9.681428
2022-12-08T00:29:25.076Z,9.681428
2022-12-08T00:30:25.069Z,9.681428
2022-12-08T00:31:25.097Z,9.681428
2022-12-08T00:32:25.066Z,9.681428
2022-12-08T00:33:25.058Z,9.681428
2022-12-08T00:34:25.032Z,9.681428
2022-12-08T00:35:25.020Z,9.681428
2022-12-08T00:36:25.020Z,9.681428
2022-12-08T00:37:25.032Z,9.681428
2022-12-08T00:38:25.007Z,9.681148
2022-12-08T00:39:25.005Z,9.681037
2022-12-08T00:40:25.003Z,9.681172
2022-12-08T00:41:24.989Z,9.681115
2022-12-08T00:42:24.977Z,9.681399
2022-12-08T00:43:24.995Z,9.681308
2022-12-08T00:44:24.975Z,9.680933
2022-12-08T00:45:24.958Z,9.680956
2022-12-08T00:46:24.996Z,9.681048
2022-12-08T00:47:25.244Z,9.681154
2022-12-08T00:48:24.967Z,9.681223
2022-12-08T00:49:24.945Z,9.681113
2022-12-08T00:50:24.931Z,9.680997
2022-12-08T00:51:24.946Z,9.681156
2022-12-08T00:52:24.924Z,9.681076
2022-12-08T00:53:24.916Z,9.681104
2022-12-08T00:54:24.936Z,9.681168
2022-12-08T00:55:24.905Z,9.681168
2022-12-08T00:56:24.906Z,9.681207
2022-12-08T00:57:24.896Z,9.681296
2022-12-08T00:58:24.883Z,9.681136
2022-12-08T00:59:24.910Z,9.681171
2022-12-08T01:00:24.881Z,9.681017
2022-12-08T01:01:24.960Z,9.680957
2022-12-08T01:02:24.887Z,9.681088
2022-12-08T01:03:24.957Z,9.680775
2022-12-08T01:04:24.865Z,9.680907
2022-12-08T01:05:24.866Z,9.681098
2022-12-08T01:06:24.857Z,9.681129
2022-12-08T01:07:24.843Z,9.681205
2022-12-08T01:08:24.881Z,9.681121
2022-12-08T01:09:24.833Z,9.681328
2022-12-08T01:10:24.846Z,9.681082
2022-12-08T01:11:24.849Z,9.681049
2022-12-08T01:12:24.800Z,9.681072
2022-12-08T01:13:24.808Z,9.680928
2022-12-08T01:14:24.801Z,9.680715
2022-12-08T01:15:24.799Z,9.680264
2022-12-08T01:16:24.858Z,9.680800
2022-12-08T01:17:31.828Z,9.681132
2022-12-08T01:18:24.770Z,9.681164
2022-12-08T01:19:24.790Z,9.680902
2022-12-08T01:20:24.765Z,9.681102
2022-12-08T01:21:24.758Z,9.680988
2022-12-08T01:22:24.752Z,9.681312
2022-12-08T01:23:24.745Z,9.681026
2022-12-08T01:24:24.740Z,9.680994
2022-12-08T01:25:24.742Z,9.681222
2022-12-08T01:26:24.738Z,9.681323
2022-12-08T01:27:24.717Z,9.681075
2022-12-08T01:28:24.734Z,9.681027
2022-12-08T01:29:24.710Z,9.680879
2022-12-08T01:30:24.754Z,9.680669
2022-12-08T01:31:24.722Z,9.680919
2022-12-08T01:32:24.679Z,9.680608
2022-12-08T01:33:24.700Z,9.680898
2022-12-08T01:34:24.699Z,9.680895
2022-12-08T01:35:24.679Z,9.681370
2022-12-08T01:36:24.674Z,9.681625
2022-12-08T01:37:24.657Z,9.681020
2022-12-08T01:38:24.645Z,9.681087
2022-12-08T01:39:24.638Z,9.680749
2022-12-08T01:40:24.692Z,9.680838
2022-12-08T01:41:24.646Z,9.681589
2022-12-08T01:42:24.626Z,9.680874
2022-12-08T01:43:24.635Z,9.681242
2022-12-08T01:44:24.612Z,9.681649
2022-12-08T01:45:24.610Z,9.682028
2022-12-08T01:46:24.660Z,9.681442
2022-12-08T01:47:24.642Z,9.681242
2022-12-08T01:48:24.671Z,9.681072
2022-12-08T01:49:24.586Z,9.681298
2022-12-08T01:50:24.580Z,9.680928
2022-12-08T01:51:24.580Z,9.680963
2022-12-08T01:52:24.569Z,9.680939
2022-12-08T01:53:24.585Z,9.680874
2022-12-08T01:54:24.573Z,9.680927
2022-12-08T01:55:24.545Z,9.680772
2022-12-08T01:56:24.546Z,9.681103
2022-12-08T01:57:24.549Z,9.680950
2022-12-08T01:58:24.547Z,9.681396
2022-12-08T01:59:24.558Z,9.681313
2022-12-08T02:00:24.543Z,9.680985
2022-12-08T02:01:24.569Z,9.681368
2022-12-08T02:02:24.582Z,9.681280
2022-12-08T02:03:24.508Z,9.681283
2022-12-08T02:04:24.515Z,9.681438
2022-12-08T02:05:24.520Z,9.681655
2022-12-08T02:06:24.482Z,9.681555
2022-12-08T02:07:24.474Z,9.681498
2022-12-08T02:08:24.502Z,9.681352
2022-12-08T02:09:24.471Z,9.681096
2022-12-08T02:10:24.454Z,9.681187
2022-12-08T02:11:24.480Z,9.680848
2022-12-08T02:12:24.449Z,9.680877
2022-12-08T02:13:24.453Z,9.680632
2022-12-08T02:14:24.450Z,9.680939
2022-12-08T02:15:24.434Z,9.681201
2022-12-08T02:16:24.485Z,9.681002
2022-12-08T02:17:24.446Z,9.680889
2022-12-08T02:18:24.429Z,9.681020
2022-12-08T02:19:31.968Z,9.680799
2022-12-08T02:20:25.398Z,9.680869
2022-12-08T02:21:24.402Z,9.681038
2022-12-08T02:22:24.415Z,9.681271
2022-12-08T02:23:24.387Z,9.681648
2022-12-08T02:24:24.387Z,9.681150
2022-12-08T02:25:24.391Z,9.680819
2022-12-08T02:26:24.363Z,9.680942
2022-12-08T02:27:24.378Z,9.680688
2022-12-08T02:28:24.363Z,9.680824
2022-12-08T02:29:24.368Z,9.680959
2022-12-08T02:30:24.349Z,9.680873
2022-12-08T02:31:24.380Z,9.680887
2022-12-08T02:32:24.332Z,9.681006
2022-12-08T02:33:24.359Z,9.681057
2022-12-08T02:34:24.323Z,9.681001
2022-12-08T02:35:24.311Z,9.681203
2022-12-08T02:36:24.303Z,9.681164
2022-12-08T02:37:24.303Z,9.681091
2022-12-08T02:38:24.298Z,9.680964
2022-12-08T02:39:24.318Z,9.680880
2022-12-08T02:40:24.290Z,9.681097
2022-12-08T02:41:24.295Z,9.681122
2022-12-08T02:42:24.276Z,9.681289
2022-12-08T02:43:24.290Z,9.681061
2022-12-08T02:44:24.274Z,9.681216
2022-12-08T02:45:24.325Z,9.681078
2022-12-08T02:46:24.316Z,9.681157
2022-12-08T02:47:24.264Z,9.681475
2022-12-08T02:48:24.244Z,9.680973
2022-12-08T02:49:24.262Z,9.681044
2022-12-08T02:50:24.227Z,9.680845
2022-12-08T02:51:24.218Z,9.681033
2022-12-08T02:52:24.213Z,9.680672
2022-12-08T02:53:24.213Z,9.681160
2022-12-08T02:54:24.209Z,9.681141
2022-12-08T02:55:24.218Z,9.681067
2022-12-08T02:56:24.192Z,9.681151
2022-12-08T02:57:24.194Z,9.680880
2022-12-08T02:58:24.183Z,9.680826
2022-12-08T02:59:24.184Z,9.681206
2022-12-08T03:00:24.178Z,9.681252
2022-12-08T03:01:24.226Z,9.681714
2022-12-08T03:02:24.221Z,9.681368
2022-12-08T03:03:24.151Z,9.680909
2022-12-08T03:04:24.161Z,9.680411
2022-12-08T03:05:24.134Z,9.680936
2022-12-08T03:06:24.148Z,9.681444
2022-12-08T03:07:24.135Z,9.680766
2022-12-08T03:08:24.186Z,9.681166
2022-12-08T03:09:24.127Z,9.681200
2022-12-08T03:10:24.105Z,9.681160
2022-12-08T03:11:24.120Z,9.681299
2022-12-08T03:12:24.120Z,9.681131
2022-12-08T03:13:24.092Z,9.680908
2022-12-08T03:14:24.090Z,9.681146
2022-12-08T03:15:24.088Z,9.681375
2022-12-08T03:16:24.169Z,9.681005
2022-12-08T03:17:24.087Z,9.681255
2022-12-08T03:18:24.080Z,9.681027
2022-12-08T03:19:24.056Z,9.680682
2022-12-08T03:20:24.052Z,9.680861
2022-12-08T03:21:24.050Z,9.681889
2022-12-08T03:22:24.073Z,9.682613
2022-12-08T03:23:24.033Z,9.681950
2022-12-08T03:24:24.028Z,9.681950
2022-12-08T03:25:24.031Z,9.681950
2022-12-08T03:26:24.033Z,9.681950
2022-12-08T03:27:24.019Z,9.681950
2022-12-08T03:28:24.028Z,9.680788
2022-12-08T03:29:24.004Z,9.681230
2022-12-08T03:30:24.017Z,9.681230
2022-12-08T03:31:24.027Z,9.681230
2022-12-08T03:32:23.991Z,9.681230
2022-12-08T03:33:23.988Z,9.681230
2022-12-08T03:34:23.978Z,9.681230
2022-12-08T03:35:23.995Z,9.681230
2022-12-08T03:36:23.981Z,9.681230
2022-12-08T03:37:23.956Z,9.681230
2022-12-08T03:38:23.950Z,9.681230
2022-12-08T03:39:23.965Z,9.681230
2022-12-08T03:40:23.960Z,9.681230
2022-12-08T03:41:23.945Z,9.681230
2022-12-08T03:42:23.966Z,9.681230
2022-12-08T03:43:23.929Z,9.681230
2022-12-08T03:44:23.926Z,9.681230
2022-12-08T03:45:23.940Z,9.681230
2022-12-08T03:49:10.507Z,9.681265
2022-12-08T03:50:10.504Z,9.681309
2022-12-08T03:51:10.512Z,9.681211
2022-12-08T03:52:10.503Z,9.680994
2022-12-08T03:53:10.503Z,9.680928
2022-12-08T03:54:10.494Z,9.680775
2022-12-08T03:55:10.547Z,9.681000
2022-12-08T03:56:10.489Z,9.681053
2022-12-08T03:57:10.465Z,9.681078
2022-12-08T03:58:10.447Z,9.680985
2022-12-08T03:59:10.459Z,9.681133
2022-12-08T04:00:10.543Z,9.681333
2022-12-08T04:01:10.431Z,9.681309
2022-12-08T04:02:10.481Z,9.681225
2022-12-08T04:03:10.495Z,9.681281
2022-12-08T04:04:10.441Z,9.681417
2022-12-08T04:05:10.490Z,9.681135
2022-12-08T04:06:10.410Z,9.681157
2022-12-08T04:07:10.398Z,9.681324
2022-12-08T04:08:10.460Z,9.681194
2022-12-08T04:09:10.418Z,9.680961
2022-12-08T04:10:10.393Z,9.680961
2022-12-08T04:11:10.385Z,9.680961
2022-12-08T04:12:10.387Z,9.680961
2022-12-08T04:13:10.382Z,9.680961
2022-12-08T04:14:10.393Z,9.680961
2022-12-08T04:15:10.374Z,9.680961
2022-12-08T04:16:10.420Z,9.680961
2022-12-08T04:17:10.366Z,9.680961
2022-12-08T04:18:10.339Z,9.680961
2022-12-08T04:19:10.337Z,9.680961
2022-12-08T04:20:10.320Z,9.680961
2022-12-08T04:21:10.335Z,9.680961
2022-12-08T04:22:10.311Z,9.680961
2022-12-08T04:23:12.103Z,9.680961
2022-12-08T04:24:10.296Z,9.680961
2022-12-08T04:25:10.294Z,9.680961
2022-12-08T04:26:10.293Z,9.680961
2022-12-08T04:27:10.299Z,9.680961
2022-12-08T04:28:10.295Z,9.680961
2022-12-08T04:29:10.334Z,9.680961
2022-12-08T04:30:10.276Z,9.680961
2022-12-08T04:31:10.350Z,9.680961
2022-12-08T04:32:10.268Z,9.680961
2022-12-08T04:33:10.257Z,9.680961
2022-12-08T04:34:10.254Z,9.680961
2022-12-08T04:35:10.257Z,9.680961
2022-12-08T04:36:10.243Z,9.680961
2022-12-08T04:37:10.232Z,9.680961
2022-12-08T04:38:10.227Z,9.680961
2022-12-08T04:39:10.223Z,9.680961
2022-12-08T04:40:10.239Z,9.680961
2022-12-08T04:41:10.211Z,9.680961
2022-12-08T04:42:10.206Z,9.680961
2022-12-08T04:43:10.197Z,9.680961
2022-12-08T04:44:10.189Z,9.680961
2022-12-08T04:45:10.186Z,9.680961
2022-12-08T04:46:10.243Z,9.680961
2022-12-08T04:47:10.228Z,9.680961
2022-12-08T04:48:10.168Z,9.680961
2022-12-08T04:49:10.163Z,9.680961
2022-12-08T04:50:10.170Z,9.680961
2022-12-08T04:51:10.153Z,9.680961
2022-12-08T04:52:10.168Z,9.680961
2022-12-08T04:53:10.149Z,9.680961
2022-12-08T04:54:10.158Z,9.680961
2022-12-08T04:55:10.134Z,9.680961
2022-12-08T04:56:10.129Z,9.680961
2022-12-08T04:57:10.134Z,9.680961
2022-12-08T04:58:10.116Z,9.680961
2022-12-08T04:59:10.110Z,9.680961
2022-12-08T05:00:10.099Z,9.680961
2022-12-08T05:01:10.138Z,9.680961
2022-12-08T05:02:10.280Z,9.680961
2022-12-08T05:03:10.099Z,9.680961
2022-12-08T05:04:10.099Z,9.680961
2022-12-08T05:05:10.074Z,9.680961
2022-12-08T05:06:10.072Z,9.680961
2022-12-08T05:07:10.061Z,9.680961
2022-12-08T05:08:10.110Z,9.680961
2022-12-08T05:09:10.048Z,9.680961
2022-12-08T05:10:10.062Z,9.680961
2022-12-08T05:11:10.048Z,9.680961
2022-12-08T05:12:10.034Z,9.680961
2022-12-08T05:13:10.023Z,9.680961
2022-12-08T05:14:10.018Z,9.680961
2022-12-08T05:15:10.025Z,9.680961
2022-12-08T05:16:10.075Z,9.680961
2022-12-08T05:17:10.083Z,9.680961
2022-12-08T05:18:10.034Z,9.680961
2022-12-08T05:19:09.987Z,9.680961
2022-12-08T05:20:09.996Z,9.680961
2022-12-08T05:21:09.984Z,9.680961
2022-12-08T05:22:09.987Z,9.680961
2022-12-08T05:23:09.986Z,9.680961
2022-12-08T05:24:09.970Z,9.680961
2022-12-08T05:25:09.962Z,9.680961
2022-12-08T05:26:09.976Z,9.680961
2022-12-08T05:27:09.957Z,9.680961
2022-12-08T05:28:39.791Z,9.680961
2022-12-08T05:29:10.937Z,9.681328
2022-12-08T05:30:09.931Z,9.680723
2022-12-08T05:31:09.979Z,9.680717
2022-12-08T05:32:09.957Z,9.680588
2022-12-08T05:33:09.915Z,9.680405
2022-12-08T05:34:09.933Z,9.680405
2022-12-08T05:35:09.915Z,9.680344
2022-12-08T05:36:09.901Z,9.679618
2022-12-08T05:37:09.915Z,9.680199
2022-12-08T05:38:09.891Z,9.680266
2022-12-08T05:39:09.885Z,9.680266
2022-12-08T05:40:09.877Z,9.680266
2022-12-08T05:41:09.870Z,9.680147
2022-12-08T05:42:09.866Z,9.680359
2022-12-08T05:43:09.877Z,9.680474
2022-12-08T05:44:09.850Z,9.680474
2022-12-08T05:45:09.850Z,9.680474
2022-12-08T05:46:09.858Z,9.680474
2022-12-08T05:47:09.849Z,9.680474
2022-12-08T05:48:09.830Z,9.680474
2022-12-08T05:49:09.847Z,9.680474
2022-12-08T05:50:09.818Z,9.680474
2022-12-08T05:51:09.814Z,9.680474
2022-12-08T05:52:09.811Z,9.680474
2022-12-08T05:53:09.802Z,9.680474
2022-12-08T05:54:09.792Z,9.680474
2022-12-08T05:55:09.843Z,9.680740
2022-12-08T05:56:11.125Z,9.680695
2022-12-08T05:57:09.779Z,9.680839
2022-12-08T05:58:09.773Z,9.681032
2022-12-08T05:59:09.763Z,9.681242
2022-12-08T06:00:09.778Z,9.681040
2022-12-08T06:01:09.770Z,9.681140
2022-12-08T06:02:09.867Z,9.681271
2022-12-08T06:03:09.790Z,9.681180
2022-12-08T06:04:09.745Z,9.681554
2022-12-08T06:05:09.732Z,9.681440
2022-12-08T06:06:09.732Z,9.681370
2022-12-08T06:07:15.792Z,9.679987
2022-12-08T06:08:10.782Z,9.680164
2022-12-08T06:09:09.713Z,9.680034
2022-12-08T06:10:09.712Z,9.680129
2022-12-08T06:11:09.699Z,9.679990
2022-12-08T06:12:09.698Z,9.680100
2022-12-08T06:13:09.708Z,9.680758
2022-12-08T06:14:09.701Z,9.680758
2022-12-08T06:15:09.683Z,9.680758
2022-12-08T06:16:09.714Z,9.680758
2022-12-08T06:17:09.735Z,9.680758
2022-12-08T06:18:09.667Z,9.680758
2022-12-08T06:19:09.679Z,9.680457
2022-12-08T06:20:09.663Z,9.680375
2022-12-08T06:21:09.647Z,9.680375
2022-12-08T06:22:09.648Z,9.680375
2022-12-08T06:23:09.655Z,9.680375
2022-12-08T06:24:09.666Z,9.680375
2022-12-08T06:25:10.258Z,9.680375
2022-12-08T06:26:09.629Z,9.680375
2022-12-08T06:27:09.623Z,9.680764
2022-12-08T06:28:09.615Z,9.680764
2022-12-08T06:29:09.612Z,9.680764
2022-12-08T06:30:09.620Z,9.680764
2022-12-08T06:31:09.595Z,9.680764
2022-12-08T06:32:09.687Z,9.680764
2022-12-08T06:33:09.584Z,9.680632
2022-12-08T06:34:09.586Z,9.680632
2022-12-08T06:35:09.584Z,9.680632
2022-12-08T06:36:09.600Z,9.680632
2022-12-08T06:37:09.568Z,9.680632
2022-12-08T06:38:09.590Z,9.680632
2022-12-08T06:39:09.555Z,9.680632
2022-12-08T06:40:09.559Z,9.680632
2022-12-08T06:41:09.553Z,9.680632
2022-12-08T06:42:09.548Z,9.680632
2022-12-08T06:43:09.539Z,9.680632
2022-12-08T06:44:09.549Z,9.680632
2022-12-08T06:45:09.533Z,9.680632
2022-12-08T06:46:09.554Z,9.680632
2022-12-08T06:47:09.515Z,9.680632
2022-12-08T06:48:09.528Z,9.680632
2022-12-08T06:49:09.502Z,9.680632
2022-12-08T06:50:09.497Z,9.680632
2022-12-08T06:51:09.490Z,9.680632
2022-12-08T06:52:09.489Z,9.680632
2022-12-08T06:53:09.526Z,9.680632
2022-12-08T06:54:09.480Z,9.680632
2022-12-08T06:55:09.469Z,9.681050
2022-12-08T06:56:09.468Z,9.681332
2022-12-08T06:57:09.460Z,9.681300
2022-12-08T06:58:09.460Z,9.681293
2022-12-08T06:59:09.471Z,9.680952
2022-12-08T07:00:09.461Z,9.680939
2022-12-08T07:01:09.495Z,9.681192
2022-12-08T07:02:09.648Z,9.681252
2022-12-08T07:03:09.435Z,9.681075
2022-12-08T07:04:09.426Z,9.681163
2022-12-08T07:05:09.436Z,9.681229
2022-12-08T07:06:09.479Z,9.681560
2022-12-08T07:07:09.427Z,9.681545
2022-12-08T07:08:09.529Z,9.681146
2022-12-08T07:09:09.391Z,9.681527
2022-12-08T07:10:09.396Z,9.680731
2022-12-08T07:11:09.387Z,9.680967
2022-12-08T07:12:09.385Z,9.681064
2022-12-08T07:13:09.396Z,9.681009
2022-12-08T07:14:09.369Z,9.681117
2022-12-08T07:15:09.364Z,9.680994
2022-12-08T07:16:09.389Z,9.680866
2022-12-08T07:17:09.442Z,9.680866
2022-12-08T07:18:16.371Z,9.681277
2022-12-08T07:19:09.352Z,9.680953
2022-12-08T07:20:09.343Z,9.680799
2022-12-08T07:21:09.350Z,9.680799
2022-12-08T07:22:09.356Z,9.680799
2022-12-08T07:23:09.332Z,9.680944
2022-12-08T07:24:09.333Z,9.680926
2022-12-08T07:25:09.323Z,9.681243
2022-12-08T07:26:09.314Z,9.681243
2022-12-08T07:27:09.300Z,9.681243
2022-12-08T07:28:09.320Z,9.681243
2022-12-08T07:29:09.292Z,9.680888
2022-12-08T07:30:09.281Z,9.680998
2022-12-08T07:31:09.388Z,9.680732
2022-12-08T07:32:09.279Z,9.680899
2022-12-08T07:33:09.285Z,9.681023
2022-12-08T07:34:09.266Z,9.681375
2022-12-08T07:35:09.256Z,9.681116
2022-12-08T07:36:09.251Z,9.681035
2022-12-08T07:37:09.243Z,9.680544
2022-12-08T07:38:09.256Z,9.680931
2022-12-08T07:39:09.248Z,9.681112
2022-12-08T07:40:09.230Z,9.681268
2022-12-08T07:41:09.217Z,9.681487
2022-12-08T07:42:09.289Z,9.681823
2022-12-08T07:43:09.210Z,9.681298
2022-12-08T07:44:09.220Z,9.681413
2022-12-08T07:45:09.205Z,9.681698
2022-12-08T07:46:09.251Z,9.681371
2022-12-08T07:47:09.190Z,9.681371
2022-12-08T07:48:09.216Z,9.681361
2022-12-08T07:49:09.187Z,9.681943
2022-12-08T07:50:09.171Z,9.681473
2022-12-08T07:51:09.157Z,9.681933
2022-12-08T07:52:09.157Z,9.681861
2022-12-08T07:53:09.141Z,9.681512
2022-12-08T07:54:09.175Z,9.681488
2022-12-08T07:55:09.147Z,9.681404
2022-12-08T07:56:09.133Z,9.681491
2022-12-08T07:57:09.124Z,9.681190
2022-12-08T07:58:09.122Z,9.681604
2022-12-08T07:59:09.117Z,9.681285
2022-12-08T08:00:09.145Z,9.681164
2022-12-08T08:01:09.158Z,9.681344
2022-12-08T08:02:23.718Z,9.681244
2022-12-08T08:03:10.126Z,9.681135
2022-12-08T08:04:09.131Z,9.681228
2022-12-08T08:05:09.223Z,9.681474
2022-12-08T08:06:09.099Z,9.681636
2022-12-08T08:07:09.082Z,9.681421
2022-12-08T08:08:09.134Z,9.681431
2022-12-08T08:09:09.059Z,9.681201
2022-12-08T08:10:09.064Z,9.681562
2022-12-08T08:11:14.572Z,9.681163
2022-12-08T08:12:30.275Z,9.681238
2022-12-08T08:13:10.031Z,9.681435
2022-12-08T08:14:09.031Z,9.681378
2022-12-08T08:15:09.026Z,9.681332
2022-12-08T08:16:09.159Z,9.681383
2022-12-08T08:17:09.264Z,9.681340
2022-12-08T08:18:09.057Z,9.681344
2022-12-08T08:19:09.026Z,9.681450
2022-12-08T08:20:09.018Z,9.681508
2022-12-08T08:21:43.277Z,9.681101
2022-12-08T08:22:09.989Z,9.681264
2022-12-08T08:23:08.986Z,9.681403
2022-12-08T08:24:09.006Z,9.681705
2022-12-08T08:25:08.996Z,9.681640
2022-12-08T08:26:08.974Z,9.681401
2022-12-08T08:27:08.965Z,9.681484
2022-12-08T08:28:08.969Z,9.681773
2022-12-08T08:29:08.953Z,9.681727
2022-12-08T08:30:08.949Z,9.681470
2022-12-08T08:31:09.017Z,9.681161
2022-12-08T08:32:08.933Z,9.680893
2022-12-08T08:33:08.952Z,9.680679
2022-12-08T08:34:08.930Z,9.681040
2022-12-08T08:35:08.928Z,9.681395
2022-12-08T08:36:08.930Z,9.681505
2022-12-08T08:37:08.962Z,9.681461
2022-12-08T08:38:08.902Z,9.681234
2022-12-08T08:39:08.911Z,9.680759
2022-12-08T08:40:08.892Z,9.680759
2022-12-08T08:41:08.878Z,9.680759
2022-12-08T08:42:08.887Z,9.680759
2022-12-08T08:43:08.901Z,9.680759
2022-12-08T08:44:08.866Z,9.680759
2022-12-08T08:45:08.873Z,9.680759
2022-12-08T08:46:09.008Z,9.680982
2022-12-08T08:47:08.848Z,9.680982
2022-12-08T08:48:08.848Z,9.680141
2022-12-08T08:49:08.867Z,9.680292
2022-12-08T08:50:09.195Z,9.680292
2022-12-08T08:51:08.834Z,9.680292
2022-12-08T08:52:08.846Z,9.680292
2022-12-08T08:53:08.857Z,9.680292
2022-12-08T08:54:08.830Z,9.681296
2022-12-08T08:55:08.842Z,9.681735
2022-12-08T08:56:08.802Z,9.681905
2022-12-08T08:57:08.805Z,9.682127
2022-12-08T08:58:08.794Z,9.682166
2022-12-08T08:59:08.785Z,9.682154
2022-12-08T09:00:08.795Z,9.682011
2022-12-08T09:01:08.778Z,9.682198
2022-12-08T09:02:08.831Z,9.682020
2022-12-08T09:03:08.777Z,9.681024
2022-12-08T09:04:08.831Z,9.680729
2022-12-08T09:05:08.883Z,9.680895
2022-12-08T09:06:08.880Z,9.680997
2022-12-08T09:07:08.777Z,9.681309
2022-12-08T09:08:08.801Z,9.681495
2022-12-08T09:09:08.730Z,9.680919
2022-12-08T09:10:09.009Z,9.680825
2022-12-08T09:11:08.726Z,9.680820
2022-12-08T09:12:08.734Z,9.680586
2022-12-08T09:13:08.730Z,9.680544
2022-12-08T09:14:08.716Z,9.680285
2022-12-08T09:15:08.707Z,9.680725
2022-12-08T09:16:08.825Z,9.680475
2022-12-08T09:17:08.731Z,9.680895
2022-12-08T09:18:08.711Z,9.681378
2022-12-08T09:19:08.700Z,9.681118
2022-12-08T09:20:08.698Z,9.681009
2022-12-08T09:21:08.674Z,9.681223
2022-12-08T09:22:08.672Z,9.681231
2022-12-08T09:23:08.664Z,9.681449
2022-12-08T09:24:08.703Z,9.681459
2022-12-08T09:25:08.653Z,9.681351
2022-12-08T09:26:08.652Z,9.681528
2022-12-08T09:27:08.638Z,9.681734
2022-12-08T09:28:08.637Z,9.681697
2022-12-08T09:29:08.627Z,9.681705
2022-12-08T09:30:08.643Z,9.681619
2022-12-08T09:31:08.654Z,9.682332
2022-12-08T09:32:08.613Z,9.682135
2022-12-08T09:33:08.653Z,9.682135
2022-12-08T09:34:08.604Z,9.682323
2022-12-08T09:35:08.610Z,9.682495
2022-12-08T09:36:08.588Z,9.682173
2022-12-08T09:37:08.601Z,9.681696
2022-12-08T09:38:08.604Z,9.681183
2022-12-08T09:39:08.567Z,9.680678
2022-12-08T09:40:08.580Z,9.681417
2022-12-08T09:41:08.565Z,9.681131
2022-12-08T09:42:08.548Z,9.681194
2022-12-08T09:43:08.550Z,9.681143
2022-12-08T09:44:08.533Z,9.681509
2022-12-08T09:45:08.523Z,9.681129
2022-12-08T09:46:08.582Z,9.681586
2022-12-08T09:47:08.578Z,9.681757
2022-12-08T09:48:08.512Z,9.682721
2022-12-08T09:49:08.501Z,9.682435
2022-12-08T09:50:08.803Z,9.682435
2022-12-08T09:51:08.491Z,9.682435
2022-12-08T09:52:08.485Z,9.682435
2022-12-08T09:53:08.485Z,9.682067
2022-12-08T09:54:08.490Z,9.682337
2022-12-08T09:55:08.465Z,9.681308
2022-12-08T09:56:08.483Z,9.681308
2022-12-08T09:57:08.455Z,9.681308
2022-12-08T09:58:08.449Z,9.681308
2022-12-08T09:59:08.452Z,9.681308
2022-12-08T10:00:08.670Z,9.681308
2022-12-08T10:01:08.429Z,9.681308
2022-12-08T10:02:08.509Z,9.681308
2022-12-08T10:03:11.214Z,9.681308
2022-12-08T10:04:09.418Z,9.681308
2022-12-08T10:05:08.463Z,9.681308
2022-12-08T10:06:08.406Z,9.681308
2022-12-08T10:07:08.412Z,9.681308
2022-12-08T10:08:08.465Z,9.681308
2022-12-08T10:09:11.174Z,9.681308
2022-12-08T10:10:08.469Z,9.681308
2022-12-08T10:11:08.396Z,9.681308
2022-12-08T10:12:08.362Z,9.681308
2022-12-08T10:13:08.363Z,9.681308
2022-12-08T10:14:08.362Z,9.681308
2022-12-08T10:15:08.351Z,9.681308
2022-12-08T10:16:08.476Z,9.681308
2022-12-08T10:17:08.409Z,9.681342
2022-12-08T10:18:08.345Z,9.681461
2022-12-08T10:19:08.321Z,9.681402
2022-12-08T10:20:08.426Z,9.681350
2022-12-08T10:21:08.331Z,9.681269
2022-12-08T10:22:08.307Z,9.681516
2022-12-08T10:23:08.308Z,9.681240
2022-12-08T10:24:08.296Z,9.681163
2022-12-08T10:25:08.294Z,9.681204
2022-12-08T10:26:08.307Z,9.681086
2022-12-08T10:27:08.278Z,9.680882
2022-12-08T10:28:08.271Z,9.680948
2022-12-08T10:29:08.270Z,9.681093
2022-12-08T10:30:08.289Z,9.681131
2022-12-08T10:31:08.278Z,9.680946
2022-12-08T10:32:08.263Z,9.680922
2022-12-08T10:33:08.245Z,9.681015
2022-12-08T10:34:08.249Z,9.680879
2022-12-08T10:35:08.226Z,9.680838
2022-12-08T10:36:08.244Z,9.680829
2022-12-08T10:37:08.211Z,9.680748
2022-12-08T10:38:08.216Z,9.680780
2022-12-08T10:39:08.223Z,9.680861
2022-12-08T10:40:08.454Z,9.681041
2022-12-08T10:41:08.190Z,9.680873
2022-12-08T10:42:08.205Z,9.681064
2022-12-08T10:43:08.214Z,9.681098
2022-12-08T10:44:08.177Z,9.680669
2022-12-08T10:45:08.179Z,9.680723
2022-12-08T10:46:08.236Z,9.680425
2022-12-08T10:47:08.185Z,9.680511
2022-12-08T10:48:08.152Z,9.681079
2022-12-08T10:49:08.167Z,9.680941
2022-12-08T10:50:08.330Z,9.679977
2022-12-08T10:51:08.129Z,9.680036
2022-12-08T10:52:08.134Z,9.680373
2022-12-08T10:53:08.127Z,9.680398
2022-12-08T10:54:08.118Z,9.680236
2022-12-08T10:55:08.141Z,9.680304
2022-12-08T10:56:08.115Z,9.680416
2022-12-08T10:57:08.110Z,9.680411
2022-12-08T10:58:08.131Z,9.680416
2022-12-08T10:59:08.093Z,9.680164
2022-12-08T11:00:13.659Z,9.679967
2022-12-08T11:01:09.094Z,9.679993
2022-12-08T11:02:08.154Z,9.680192
2022-12-08T11:03:08.166Z,9.680337
2022-12-08T11:04:08.083Z,9.680656
2022-12-08T11:05:08.058Z,9.681565
2022-12-08T11:06:10.963Z,9.681509
2022-12-08T11:07:08.089Z,9.681509
2022-12-08T11:08:08.126Z,9.681509
2022-12-08T11:09:08.029Z,9.681509
2022-12-08T11:10:08.222Z,9.681509
2022-12-08T11:11:08.038Z,9.681509
2022-12-08T11:12:08.016Z,9.681509
2022-12-08T11:13:08.048Z,9.681509
2022-12-08T11:14:08.010Z,9.681509
2022-12-08T11:15:07.994Z,9.681509
2022-12-08T11:16:08.035Z,9.681509
2022-12-08T11:17:07.999Z,9.681509
2022-12-08T11:18:08.008Z,9.681509
2022-12-08T11:19:07.985Z,9.681509
2022-12-08T11:20:08.377Z,9.681509
2022-12-08T11:21:07.959Z,9.681509
2022-12-08T11:22:07.973Z,9.681509
2022-12-08T11:23:07.957Z,9.681509
2022-12-08T11:24:07.953Z,9.681509
2022-12-08T11:25:07.937Z,9.681509
2022-12-08T11:26:07.948Z,9.681509
2022-12-08T11:27:07.928Z,9.681509
2022-12-08T11:28:07.962Z,9.681509
2022-12-08T11:29:07.913Z,9.681509
2022-12-08T11:30:13.935Z,9.681509
2022-12-08T11:31:08.954Z,9.681509
2022-12-08T11:32:07.937Z,9.681509
2022-12-08T11:33:07.886Z,9.681509
2022-12-08T11:34:07.900Z,9.681509
2022-12-08T11:35:07.873Z,9.681509
2022-12-08T11:36:07.867Z,9.681509
2022-12-08T11:37:07.880Z,9.681509
2022-12-08T11:38:20.998Z,9.681509
2022-12-08T11:39:08.864Z,9.681509
2022-12-08T11:40:08.146Z,9.681509
2022-12-08T11:41:13.987Z,9.681509
2022-12-08T11:42:07.828Z,9.681509
2022-12-08T11:43:07.819Z,9.681509
2022-12-08T11:44:07.812Z,9.681509
2022-12-08T11:45:07.979Z,9.681509
2022-12-08T11:46:07.900Z,9.681509
2022-12-08T11:47:07.790Z,9.681509